Time;durP1;ratioP1;P1;durP2;ratioP2;P2;SDS_P1;SDS_P2;PMS_P1;PMS_P2;Temp;Humidity;BMP_temperature;BMP_pressure;BME280_temperature;BME280_humidity;BME280_pressure;Samples;Min_cycle;Max_cycle;Signal;HPM_P1;HPM_P2
2022/12/09 00:00:08;;;;;;;;;;;;;;;7.37;100.00;99664.88;304897;32;5625;-78
2022/12/09 00:00:18;;;;;;;;;;;;;;;7.37;100.00;99667.50;303759;31;7921;-78
2022/12/09 00:00:29;;;;;;;;;;;;;;;7.36;100.00;99665.81;302381;32;1372;-78
2022/12/09 00:00:39;;;;;;;;;;;;;;;7.37;100.00;99666.63;302040;32;6987;-77
2022/12/09 00:00:50;;;;;;;;;;;;;;;7.37;100.00;99667.50;301138;32;6049;-78
2022/12/09 00:01:05;;;;;;;;;;;;;;;7.37;100.00;99667.50;299576;32;5605;-77
2022/12/09 00:01:16;;;;;;;;;;;;;;;7.37;100.00;99662.28;294631;33;4006;-76
2022/12/09 00:01:27;;;;;;;;;;;;;;;7.37;100.00;99664.88;294092;33;1462;-76
2022/12/09 00:01:37;;;;;;;;;;;;;;;7.35;100.00;99671.91;294414;33;5141;-76
2022/12/09 00:01:47;;;;;;;;;;;;;;;7.35;100.00;99669.31;293979;33;6623;-76
2022/12/09 00:01:57;;;;;;;;;;;;;;;7.35;100.00;99674.53;298277;33;803;-78
2022/12/09 00:02:08;;;;;;;;;;;;;;;7.36;100.00;99667.56;295209;33;6433;-77
2022/12/09 00:02:18;;;;;;;;;;;;;;;7.35;100.00;99674.53;293443;33;7779;-78
2022/12/09 00:02:28;;;;;;;;;;;;;;;7.36;100.00;99662.34;292466;33;1423;-78
2022/12/09 00:02:39;;;;;;;;;;;;;;;7.34;100.00;99670.22;292788;33;10387;-78
2022/12/09 00:02:50;;;;;;;;;;;;;;;7.33;100.00;99666.75;290756;33;9841;-78
2022/12/09 00:04:52;;;;;;;;;;;;;;;7.37;100.00;99670.09;2502541;27;19933;-77
2022/12/09 00:05:02;;;;;;;;;;;;;;;7.37;100.00;99670.09;356186;27;1217;-77
2022/12/09 00:05:12;;;;;;;;;;;;;;;7.37;100.00;99672.69;353393;28;1681;-77
2022/12/09 00:05:23;;;;;;;;;;;;;;;7.37;100.00;99664.88;351991;28;814;-77
2022/12/09 00:05:33;;;;;;;;;;;;;;;7.39;100.00;99664.84;351586;28;1152;-77
2022/12/09 00:05:43;;;;;;;;;;;;;;;7.39;100.00;99670.91;349279;28;1222;-77
2022/12/09 00:05:53;;;;;;;;;;;;;;;7.38;100.00;99664.00;350087;28;1450;-77
2022/12/09 00:06:30;;;;;;;;;;;;;;;7.39;100.00;99663.09;351123;28;1395;-77
2022/12/09 00:06:40;;;;;;;;;;;;;;;7.38;100.00;99661.38;346436;28;5986;-77
2022/12/09 00:06:50;;;;;;;;;;;;;;;7.38;100.00;99664.00;349162;28;917;-77
2022/12/09 00:07:01;;;;;;;;;;;;;;;7.39;100.00;99660.50;349541;28;1534;-76
2022/12/09 00:07:11;;;;;;;;;;;;;;;7.39;100.00;99659.63;347471;28;3578;-76
2022/12/09 00:07:21;;;;;;;;;;;;;;;7.38;100.00;99658.78;349148;28;1216;-76
2022/12/09 00:07:33;;;;;;;;;;;;;;;7.40;100.00;99663.94;347695;28;1199;-76
2022/12/09 00:07:43;;;;;;;;;;;;;;;7.38;100.00;99653.56;349221;28;1208;-76
2022/12/09 00:07:53;;;;;;;;;;;;;;;7.38;100.00;99656.19;349252;28;793;-77
2022/12/09 00:08:03;;;;;;;;;;;;;;;7.40;100.00;99666.56;350990;28;1199;-76
2022/12/09 00:08:14;;;;;;;;;;;;;;;7.38;100.00;99660.53;350469;28;1179;-76
2022/12/09 00:08:24;;;;;;;;;;;;;;;7.38;100.00;99661.38;352113;28;791;-76
2022/12/09 00:08:34;;;;;;;;;;;;;;;7.39;100.00;99662.25;347663;28;1211;-76
2022/12/09 00:08:44;;;;;;;;;;;;;;;7.39;100.00;99664.84;348506;28;1216;-76
2022/12/09 00:08:55;;;;;;;;;;;;;;;7.39;100.00;99660.50;346472;28;809;-76
2022/12/09 00:09:05;;;;;;;;;;;;;;;7.37;100.00;99659.69;348946;28;1246;-76
2022/12/09 00:09:15;;;;;;;;;;;;;;;7.38;100.00;99663.13;345692;28;1232;-76
2022/12/09 00:09:26;;;;;;;;;;;;;;;7.37;100.00;99662.28;346479;28;1498;-76
2022/12/09 00:09:36;;;;;;;;;;;;;;;7.38;100.00;99661.38;346485;28;884;-76
2022/12/09 00:09:46;;;;;;;;;;;;;;;7.38;100.00;99664.00;347779;28;805;-76
2022/12/09 00:09:56;;;;;;;;;;;;;;;7.37;100.00;99659.69;346479;28;1519;-77
2022/12/09 00:10:07;;;;;;;;;;;;;;;7.35;100.00;99661.50;347827;28;1394;-76
2022/12/09 00:10:17;;;;;;;;;;;;;;;7.37;100.00;99664.88;349170;28;871;-76
2022/12/09 00:10:27;;;;;;;;;;;;;;;7.35;100.00;99669.31;350490;28;1534;-77
2022/12/09 00:10:37;;;;;;;;;;;;;;;7.33;100.00;99665.91;349172;28;1209;-77
2022/12/09 00:10:49;;;;;;;;;;;;;;;7.34;100.00;99667.59;346628;28;1203;-77
2022/12/09 00:10:59;;;;;;;;;;;;;;;7.34;100.00;99660.66;344003;28;1584;-77
2022/12/09 00:11:09;;;;;;;;;;;;;;;7.34;100.00;99662.41;346395;28;1266;-77
2022/12/09 00:11:20;;;;;;;;;;;;;;;7.36;100.00;99672.78;344946;28;1305;-77
2022/12/09 00:11:30;;;;;;;;;;;;;;;7.36;100.00;99667.56;345406;28;1319;-78
2022/12/09 00:11:41;;;;;;;;;;;;;;;7.36;100.00;99668.41;345169;28;1150;-77
2022/12/09 00:11:51;;;;;;;;;;;;;;;7.35;100.00;99666.72;347827;28;777;-77
2022/12/09 00:12:01;;;;;;;;;;;;;;;7.37;100.00;99671.84;347186;28;662;-77
2022/12/09 00:12:12;;;;;;;;;;;;;;;7.36;100.00;99658.00;346375;28;1299;-77
2022/12/09 00:12:22;;;;;;;;;;;;;;;7.35;100.00;99656.28;346416;28;1331;-78
2022/12/09 00:12:32;;;;;;;;;;;;;;;7.34;100.00;99665.84;343573;28;1282;-77
2022/12/09 00:12:42;;;;;;;;;;;;;;;7.34;100.00;99660.66;342142;28;1397;-77
2022/12/09 00:12:54;;;;;;;;;;;;;;;7.35;100.00;99671.91;341135;29;847;-77
2022/12/09 00:13:04;;;;;;;;;;;;;;;7.34;100.00;99659.78;342468;28;1261;-77
2022/12/09 00:13:14;;;;;;;;;;;;;;;7.36;100.00;99668.41;339553;29;1291;-77
2022/12/09 00:13:24;;;;;;;;;;;;;;;7.34;100.00;99667.59;340907;28;885;-77
2022/12/09 00:13:35;;;;;;;;;;;;;;;7.33;100.00;99671.09;340730;29;1539;-77
2022/12/09 00:13:48;;;;;;;;;;;;;;;7.31;100.00;99668.53;338740;29;1927;-77
2022/12/09 00:13:58;;;;;;;;;;;;;;;7.32;100.00;99667.63;340014;29;1676;-77
2022/12/09 00:14:09;;;;;;;;;;;;;;;7.31;100.00;99663.34;340969;29;1210;-77
2022/12/09 00:14:19;;;;;;;;;;;;;;;7.32;100.00;99665.03;338554;29;1327;-77
2022/12/09 00:14:30;;;;;;;;;;;;;;;7.33;100.00;99665.91;338381;29;1215;-77
2022/12/09 00:14:40;;;;;;;;;;;;;;;7.33;100.00;99668.50;338057;29;1310;-77
2022/12/09 00:14:50;;;;;;;;;;;;;;;7.33;100.00;99663.28;336859;29;1434;-77
2022/12/09 00:15:00;;;;;;;;;;;;;;;7.32;100.00;99667.63;335558;29;1495;-77
2022/12/09 00:15:10;;;;;;;;;;;;;;;7.32;100.00;99656.38;333348;29;907;-77
2022/12/09 00:15:21;;;;;;;;;;;;;;;7.31;100.00;99663.34;332887;29;1658;-77
2022/12/09 00:15:31;;;;;;;;;;;;;;;7.32;100.00;99669.38;330557;29;1966;-77
2022/12/09 00:15:41;;;;;;;;;;;;;;;7.32;100.00;99664.19;325286;29;4288;-77
2022/12/09 00:15:51;;;;;;;;;;;;;;;7.31;100.00;99659.88;329363;29;3463;-77
2022/12/09 00:16:05;;;;;;;;;;;;;;;7.31;100.00;99662.47;330716;29;1799;-77
2022/12/09 00:16:16;;;;;;;;;;;;;;;7.31;100.00;99665.09;331925;29;3362;-77
2022/12/09 00:16:26;;;;;;;;;;;;;;;7.31;100.00;99667.69;333168;29;1285;-77
2022/12/09 00:16:37;;;;;;;;;;;;;;;7.32;100.00;99664.19;332044;29;1245;-77
2022/12/09 00:16:48;;;;;;;;;;;;;;;7.32;100.00;99664.19;327110;29;1396;-77
2022/12/09 00:16:58;;;;;;;;;;;;;;;7.34;100.00;99667.59;322263;30;2054;-77
2022/12/09 00:17:08;;;;;;;;;;;;;;;7.33;100.00;99658.94;323540;30;1510;-77
2022/12/09 00:17:18;;;;;;;;;;;;;;;7.34;100.00;99667.59;326525;30;2044;-77
2022/12/09 00:17:29;;;;;;;;;;;;;;;7.34;100.00;99652.84;326183;30;2296;-77
2022/12/09 00:17:39;;;;;;;;;;;;;;;7.35;100.00;99656.28;325959;30;1345;-77
2022/12/09 00:17:49;;;;;;;;;;;;;;;7.34;100.00;99654.59;326665;30;2505;-77
2022/12/09 00:17:59;;;;;;;;;;;;;;;7.34;100.00;99654.59;325207;30;2491;-77
2022/12/09 00:18:10;;;;;;;;;;;;;;;7.34;100.00;99652.84;323706;30;793;-77
2022/12/09 00:18:20;;;;;;;;;;;;;;;7.34;100.00;99654.59;321982;30;1785;-77
2022/12/09 00:18:30;;;;;;;;;;;;;;;7.31;100.00;99652.06;319209;30;1275;-76
2022/12/09 00:18:40;;;;;;;;;;;;;;;7.29;100.00;99659.06;318767;30;1210;-76
2022/12/09 00:18:51;;;;;;;;;;;;;;;7.29;100.00;99656.47;321810;30;1956;-76
2022/12/09 00:19:01;;;;;;;;;;;;;;;7.28;100.00;99663.41;318839;30;2347;-76
2022/12/09 00:19:11;;;;;;;;;;;;;;;7.28;100.00;99647.78;319512;30;2748;-76
2022/12/09 00:19:21;;;;;;;;;;;;;;;7.28;100.00;99655.59;321250;30;832;-76
2022/12/09 00:19:33;;;;;;;;;;;;;;;7.30;100.00;99650.34;315775;31;2655;-76
2022/12/09 00:19:43;;;;;;;;;;;;;;;7.30;100.00;99655.56;316271;30;2890;-76
2022/12/09 00:19:53;;;;;;;;;;;;;;;7.30;100.00;99660.78;320004;30;1254;-76
2022/12/09 00:20:04;;;;;;;;;;;;;;;7.29;100.00;99659.06;314642;31;3233;-76
2022/12/09 00:20:14;;;;;;;;;;;;;;;7.30;100.00;99658.16;315296;30;3297;-77
2022/12/09 00:20:24;;;;;;;;;;;;;;;7.30;100.00;99650.34;318812;31;1434;-77
2022/12/09 00:20:35;;;;;;;;;;;;;;;7.30;100.00;99643.41;317489;31;2492;-76
2022/12/09 00:20:45;;;;;;;;;;;;;;;7.31;100.00;99649.47;314391;31;2312;-76
2022/12/09 00:20:55;;;;;;;;;;;;;;;7.31;100.00;99652.06;314659;31;1633;-77
2022/12/09 00:21:21;;;;;;;;;;;;;;;7.31;100.00;99649.47;313105;31;3108;-77
2022/12/09 00:21:32;;;;;;;;;;;;;;;7.31;100.00;99657.28;307565;31;3912;-76
2022/12/09 00:21:42;;;;;;;;;;;;;;;7.31;100.00;99659.88;304728;32;4146;-76
2022/12/09 00:21:52;;;;;;;;;;;;;;;7.31;100.00;99652.91;303377;32;849;-76
2022/12/09 00:22:03;;;;;;;;;;;;;;;7.32;100.00;99658.97;301435;32;4615;-76
2022/12/09 00:22:13;;;;;;;;;;;;;;;7.32;100.00;99654.63;301044;32;4435;-76
2022/12/09 00:22:24;;;;;;;;;;;;;;;7.33;100.00;99655.47;300376;32;870;-76
2022/12/09 00:22:35;;;;;;;;;;;;;;;7.32;100.00;99653.78;301595;32;4364;-76
2022/12/09 00:22:45;;;;;;;;;;;;;;;7.33;100.00;99655.47;302721;32;4086;-76
2022/12/09 00:22:55;;;;;;;;;;;;;;;7.34;100.00;99657.19;301901;32;1211;-76
2022/12/09 00:23:06;;;;;;;;;;;;;;;7.33;100.00;99656.34;296601;32;3664;-76
2022/12/09 00:23:16;;;;;;;;;;;;;;;7.34;100.00;99654.59;293021;33;4568;-76
2022/12/09 00:23:26;;;;;;;;;;;;;;;7.33;100.00;99663.28;290488;33;5768;-76
2022/12/09 00:23:36;;;;;;;;;;;;;;;7.34;100.00;99655.44;291412;33;1213;-77
2022/12/09 00:23:47;;;;;;;;;;;;;;;7.35;100.00;99658.91;289672;33;5539;-77
2022/12/09 00:23:57;;;;;;;;;;;;;;;7.33;100.00;99655.47;287843;34;6346;-77
2022/12/09 00:24:08;;;;;;;;;;;;;;;7.34;100.00;99665.00;291414;34;1089;-77
2022/12/09 00:24:19;;;;;;;;;;;;;;;7.34;100.00;99651.97;291911;33;6024;-76
2022/12/09 00:24:29;;;;;;;;;;;;;;;7.34;100.00;99659.78;292573;33;6382;-76
2022/12/09 00:24:39;;;;;;;;;;;;;;;7.34;100.00;99654.59;291692;33;1418;-76
2022/12/09 00:24:49;;;;;;;;;;;;;;;7.35;100.00;99658.91;285034;34;6553;-76
2022/12/09 00:25:00;;;;;;;;;;;;;;;7.36;100.00;99663.22;285678;34;4603;-76
2022/12/09 00:25:10;;;;;;;;;;;;;;;7.36;100.00;99670.16;288410;34;3666;-76
2022/12/09 00:25:20;;;;;;;;;;;;;;;7.35;100.00;99656.28;285656;34;4767;-76
2022/12/09 00:25:30;;;;;;;;;;;;;;;7.35;100.00;99658.91;286463;34;6546;-76
2022/12/09 00:25:41;;;;;;;;;;;;;;;7.35;100.00;99664.09;287717;34;852;-76
2022/12/09 00:25:51;;;;;;;;;;;;;;;7.36;100.00;99660.59;287127;34;7789;-76
2022/12/09 00:26:01;;;;;;;;;;;;;;;7.36;100.00;99663.22;285445;34;8630;-78
2022/12/09 00:26:11;;;;;;;;;;;;;;;7.37;100.00;99662.28;284154;34;8830;-77
2022/12/09 00:26:22;;;;;;;;;;;;;;;7.38;100.00;99660.53;286842;34;1225;-77
2022/12/09 00:26:32;;;;;;;;;;;;;;;7.37;100.00;99661.44;283406;34;9445;-77
2022/12/09 00:26:42;;;;;;;;;;;;;;;7.38;100.00;99664.00;281179;35;7957;-76
2022/12/09 00:26:53;;;;;;;;;;;;;;;7.38;100.00;99663.13;279410;35;874;-76
2022/12/09 00:29:17;;;;;;;;;;;;;;;7.39;100.00;99673.50;2494679;27;19937;-76
2022/12/09 00:29:27;;;;;;;;;;;;;;;7.37;100.00;99672.69;353233;28;1333;-76
2022/12/09 00:29:37;;;;;;;;;;;;;;;7.38;100.00;99674.41;350546;28;1499;-77
2022/12/09 00:29:47;;;;;;;;;;;;;;;7.37;100.00;99670.09;349056;28;1231;-77
2022/12/09 00:29:57;;;;;;;;;;;;;;;7.39;100.00;99673.50;350607;28;1195;-77
2022/12/09 00:30:08;;;;;;;;;;;;;;;7.38;100.00;99671.81;350585;28;1499;-77
2022/12/09 00:30:18;;;;;;;;;;;;;;;7.38;100.00;99664.00;347869;28;1332;-76
2022/12/09 00:30:28;;;;;;;;;;;;;;;7.39;100.00;99667.44;347929;28;947;-76
2022/12/09 00:30:38;;;;;;;;;;;;;;;7.39;100.00;99668.31;347561;28;1190;-76
2022/12/09 00:30:49;;;;;;;;;;;;;;;7.39;100.00;99664.84;349240;28;1191;-77
2022/12/09 00:30:59;;;;;;;;;;;;;;;7.39;100.00;99675.25;349971;28;1494;-77
2022/12/09 00:31:13;;;;;;;;;;;;;;;7.38;100.00;99664.00;349487;28;840;-77
2022/12/09 00:31:28;;;;;;;;;;;;;;;7.38;100.00;99671.81;351021;28;1137;-76
2022/12/09 00:31:38;;;;;;;;;;;;;;;7.39;100.00;99670.91;351875;28;1242;-76
2022/12/09 00:31:48;;;;;;;;;;;;;;;7.40;100.00;99676.97;350579;28;832;-76
2022/12/09 00:31:58;;;;;;;;;;;;;;;7.39;100.00;99676.13;348877;28;1257;-77
2022/12/09 00:32:09;;;;;;;;;;;;;;;7.39;100.00;99676.13;350550;28;1192;-77
2022/12/09 00:32:19;;;;;;;;;;;;;;;7.39;100.00;99668.31;347844;28;1330;-77
2022/12/09 00:32:29;;;;;;;;;;;;;;;7.40;100.00;99677.81;347841;28;2267;-77
2022/12/09 00:32:39;;;;;;;;;;;;;;;7.40;100.00;99676.97;349518;28;1219;-77
2022/12/09 00:32:49;;;;;;;;;;;;;;;7.40;100.00;99683.03;351997;28;975;-77
2022/12/09 00:33:00;;;;;;;;;;;;;;;7.41;100.00;99679.53;350528;28;1274;-77
2022/12/09 00:33:10;;;;;;;;;;;;;;;7.40;100.00;99677.81;347532;28;1193;-77
2022/12/09 00:33:20;;;;;;;;;;;;;;;7.38;100.00;99679.63;346446;28;1176;-77
2022/12/09 00:33:31;;;;;;;;;;;;;;;7.37;100.00;99677.03;346406;28;1251;-77
2022/12/09 00:33:41;;;;;;;;;;;;;;;7.36;100.00;99681.44;347655;28;1129;-77
2022/12/09 00:33:54;;;;;;;;;;;;;;;7.35;100.00;99674.53;346314;28;1228;-77
2022/12/09 00:34:05;;;;;;;;;;;;;;;7.33;100.00;99682.38;343573;28;5055;-76
2022/12/09 00:34:15;;;;;;;;;;;;;;;7.34;100.00;99680.63;347385;28;3356;-76
2022/12/09 00:34:25;;;;;;;;;;;;;;;7.34;100.00;99678.00;350447;28;2436;-76
2022/12/09 00:34:35;;;;;;;;;;;;;;;7.33;100.00;99681.50;348811;28;3278;-76
2022/12/09 00:34:47;;;;;;;;;;;;;;;7.34;100.00;99683.22;349277;28;1307;-76
2022/12/09 00:34:57;;;;;;;;;;;;;;;7.33;100.00;99678.91;345737;28;1391;-76
2022/12/09 00:35:07;;;;;;;;;;;;;;;7.35;100.00;99687.53;346068;28;1093;-76
2022/12/09 00:35:17;;;;;;;;;;;;;;;7.36;100.00;99685.78;343151;28;1214;-76
2022/12/09 00:35:28;;;;;;;;;;;;;;;7.36;100.00;99681.44;344076;28;1244;-76
2022/12/09 00:35:38;;;;;;;;;;;;;;;7.36;100.00;99685.78;342143;28;1419;-75
2022/12/09 00:35:48;;;;;;;;;;;;;;;7.36;100.00;99686.63;340700;29;1516;-76
2022/12/09 00:36:05;;;;;;;;;;;;;;;7.37;100.00;99683.09;339639;29;1897;-76
2022/12/09 00:36:16;;;;;;;;;;;;;;;7.36;100.00;99680.56;342291;28;987;-76
2022/12/09 00:36:26;;;;;;;;;;;;;;;7.37;100.00;99682.25;341050;29;1257;-76
2022/12/09 00:36:36;;;;;;;;;;;;;;;7.37;100.00;99683.09;342327;28;1186;-76
2022/12/09 00:36:47;;;;;;;;;;;;;;;7.36;100.00;99678.81;342370;28;1194;-76
2022/12/09 00:36:57;;;;;;;;;;;;;;;7.37;100.00;99683.09;341597;28;1226;-76
2022/12/09 00:37:07;;;;;;;;;;;;;;;7.36;100.00;99676.22;340334;28;1183;-76
2022/12/09 00:37:17;;;;;;;;;;;;;;;7.36;100.00;99676.22;343692;28;1055;-76
2022/12/09 00:37:28;;;;;;;;;;;;;;;7.37;100.00;99677.91;339829;28;1252;-76
2022/12/09 00:37:38;;;;;;;;;;;;;;;7.36;100.00;99676.22;338510;29;1313;-76
2022/12/09 00:37:48;;;;;;;;;;;;;;;7.37;100.00;99683.09;339704;29;1328;-76
2022/12/09 00:37:58;;;;;;;;;;;;;;;7.36;100.00;99680.56;341907;28;1548;-76
2022/12/09 00:38:08;;;;;;;;;;;;;;;7.36;100.00;99681.44;340169;28;1974;-76
2022/12/09 00:38:19;;;;;;;;;;;;;;;7.36;100.00;99681.44;341075;29;857;-76
2022/12/09 00:38:29;;;;;;;;;;;;;;;7.35;100.00;99679.72;340625;29;869;-76
2022/12/09 00:38:39;;;;;;;;;;;;;;;7.36;100.00;99681.44;337807;29;1346;-76
2022/12/09 00:38:49;;;;;;;;;;;;;;;7.35;100.00;99679.72;333340;29;1261;-76
2022/12/09 00:39:00;;;;;;;;;;;;;;;7.37;100.00;99677.91;336765;29;1289;-76
2022/12/09 00:39:11;;;;;;;;;;;;;;;7.36;100.00;99681.44;337413;29;1424;-76
2022/12/09 00:39:21;;;;;;;;;;;;;;;7.36;100.00;99684.03;336740;29;1801;-76
2022/12/09 00:39:31;;;;;;;;;;;;;;;7.36;100.00;99677.97;332113;29;816;-76
2022/12/09 00:39:41;;;;;;;;;;;;;;;7.37;100.00;99682.25;330444;29;2103;-76
2022/12/09 00:39:51;;;;;;;;;;;;;;;7.37;100.00;99671.84;330010;29;1981;-76
2022/12/09 00:40:02;;;;;;;;;;;;;;;7.36;100.00;99678.81;330877;29;1254;-76
2022/12/09 00:40:12;;;;;;;;;;;;;;;7.36;100.00;99681.44;333874;29;2098;-77
2022/12/09 00:40:23;;;;;;;;;;;;;;;7.36;100.00;99678.81;332865;29;1609;-77
2022/12/09 00:40:33;;;;;;;;;;;;;;;7.35;100.00;99679.72;330641;29;1180;-77
2022/12/09 00:40:43;;;;;;;;;;;;;;;7.36;100.00;99676.22;331962;29;1309;-77
2022/12/09 00:40:53;;;;;;;;;;;;;;;7.37;100.00;99677.03;328172;29;1514;-77
2022/12/09 00:41:04;;;;;;;;;;;;;;;7.37;100.00;99675.28;326944;30;1517;-77
2022/12/09 00:41:14;;;;;;;;;;;;;;;7.37;100.00;99672.69;329551;29;1638;-77
2022/12/09 00:41:24;;;;;;;;;;;;;;;7.38;100.00;99676.16;329623;29;2159;-77
2022/12/09 00:41:35;;;;;;;;;;;;;;;7.37;100.00;99677.91;330744;29;856;-77
2022/12/09 00:41:45;;;;;;;;;;;;;;;7.38;100.00;99676.16;330093;29;2369;-76
2022/12/09 00:41:55;;;;;;;;;;;;;;;7.37;100.00;99677.91;330264;29;2486;-76
2022/12/09 00:42:05;;;;;;;;;;;;;;;7.37;100.00;99675.28;330137;29;1093;-76
2022/12/09 00:42:16;;;;;;;;;;;;;;;7.37;100.00;99675.28;328064;30;1365;-76
2022/12/09 00:42:26;;;;;;;;;;;;;;;7.38;100.00;99682.22;325730;30;2590;-76
2022/12/09 00:42:36;;;;;;;;;;;;;;;7.37;100.00;99672.69;323360;30;1806;-76
2022/12/09 00:42:46;;;;;;;;;;;;;;;7.38;100.00;99684.81;322246;30;1191;-76
2022/12/09 00:42:56;;;;;;;;;;;;;;;7.39;100.00;99683.06;325098;30;1696;-76
2022/12/09 00:43:07;;;;;;;;;;;;;;;7.39;100.00;99683.06;322276;30;1920;-76
2022/12/09 00:43:17;;;;;;;;;;;;;;;7.39;100.00;99673.50;319245;30;4974;-76
2022/12/09 00:43:27;;;;;;;;;;;;;;;7.38;100.00;99678.75;322199;30;3929;-76
2022/12/09 00:43:37;;;;;;;;;;;;;;;7.38;100.00;99679.63;322434;30;2619;-76
2022/12/09 00:43:48;;;;;;;;;;;;;;;7.39;100.00;99680.47;318483;31;1808;-76
2022/12/09 00:43:58;;;;;;;;;;;;;;;7.39;100.00;99675.25;322096;30;3892;-76
2022/12/09 00:44:08;;;;;;;;;;;;;;;7.39;100.00;99675.25;321148;30;3290;-76
2022/12/09 00:44:18;;;;;;;;;;;;;;;7.38;100.00;99678.75;320029;30;1327;-76
2022/12/09 00:44:29;;;;;;;;;;;;;;;7.40;100.00;99682.19;320458;30;3434;-76
2022/12/09 00:44:39;;;;;;;;;;;;;;;7.38;100.00;99674.41;319212;30;3441;-76
2022/12/09 00:44:49;;;;;;;;;;;;;;;7.39;100.00;99676.13;317740;31;1246;-76
2022/12/09 00:44:59;;;;;;;;;;;;;;;7.39;100.00;99681.31;319155;30;2540;-76
2022/12/09 00:45:10;;;;;;;;;;;;;;;7.38;100.00;99674.41;314279;31;2120;-78
2022/12/09 00:45:20;;;;;;;;;;;;;;;7.39;100.00;99677.88;314314;31;1341;-77
2022/12/09 00:45:31;;;;;;;;;;;;;;;7.38;100.00;99674.41;318417;30;3571;-76
2022/12/09 00:45:41;;;;;;;;;;;;;;;7.38;100.00;99674.41;315689;31;3369;-76
2022/12/09 00:45:51;;;;;;;;;;;;;;;7.38;100.00;99676.16;316900;31;3661;-76
2022/12/09 00:46:01;;;;;;;;;;;;;;;7.38;100.00;99679.63;315284;31;1564;-76
2022/12/09 00:46:12;;;;;;;;;;;;;;;7.38;100.00;99681.34;308332;31;4690;-76
2022/12/09 00:46:22;;;;;;;;;;;;;;;7.37;100.00;99683.09;305703;31;4799;-76
2022/12/09 00:46:32;;;;;;;;;;;;;;;7.38;100.00;99678.75;310181;31;812;-76
2022/12/09 00:46:43;;;;;;;;;;;;;;;7.38;100.00;99678.75;305946;32;4530;-76
2022/12/09 00:46:53;;;;;;;;;;;;;;;7.38;100.00;99677.00;307253;32;4969;-76
2022/12/09 00:47:03;;;;;;;;;;;;;;;7.39;100.00;99678.72;307259;32;1399;-76
2022/12/09 00:47:13;;;;;;;;;;;;;;;7.39;100.00;99680.47;306959;31;3365;-76
2022/12/09 00:47:23;;;;;;;;;;;;;;;7.38;100.00;99679.63;304644;32;3520;-76
2022/12/09 00:47:34;;;;;;;;;;;;;;;7.38;100.00;99677.00;304597;32;893;-76
2022/12/09 00:47:44;;;;;;;;;;;;;;;7.39;100.00;99675.25;305040;32;4232;-76
2022/12/09 00:47:54;;;;;;;;;;;;;;;7.38;100.00;99679.63;304976;32;4940;-76
2022/12/09 00:48:04;;;;;;;;;;;;;;;7.40;100.00;99682.19;303120;32;1011;-76
2022/12/09 00:48:15;;;;;;;;;;;;;;;7.39;100.00;99672.66;300822;32;5830;-76
2022/12/09 00:48:25;;;;;;;;;;;;;;;7.39;100.00;99673.50;299092;32;6151;-76
2022/12/09 00:48:38;;;;;;;;;;;;;;;7.39;100.00;99678.72;299326;33;1199;-76
2022/12/09 00:48:48;;;;;;;;;;;;;;;7.38;100.00;99678.75;296285;33;1366;-76
2022/12/09 00:48:59;;;;;;;;;;;;;;;7.39;100.00;99675.25;296582;33;5582;-76
2022/12/09 00:49:09;;;;;;;;;;;;;;;7.40;100.00;99684.78;294845;33;6203;-76
2022/12/09 00:49:19;;;;;;;;;;;;;;;7.39;100.00;99675.25;294223;33;1298;-76
2022/12/09 00:49:29;;;;;;;;;;;;;;;7.39;100.00;99670.06;293763;33;5155;-76
2022/12/09 00:49:39;;;;;;;;;;;;;;;7.38;100.00;99679.63;291662;33;5718;-76
2022/12/09 00:49:50;;;;;;;;;;;;;;;7.39;100.00;99678.72;290457;34;1355;-76
2022/12/09 00:50:00;;;;;;;;;;;;;;;7.39;100.00;99672.66;292710;33;7086;-76
2022/12/09 00:50:10;;;;;;;;;;;;;;;7.40;100.00;99677.81;289434;33;7748;-76
2022/12/09 00:50:20;;;;;;;;;;;;;;;7.39;100.00;99670.91;288557;34;1376;-76
2022/12/09 00:50:31;;;;;;;;;;;;;;;7.39;100.00;99678.72;286592;34;8494;-76
2022/12/09 00:50:41;;;;;;;;;;;;;;;7.39;100.00;99676.13;284040;34;8772;-76
2022/12/09 00:50:51;;;;;;;;;;;;;;;7.39;100.00;99676.13;283345;34;9715;-76
2022/12/09 00:51:01;;;;;;;;;;;;;;;7.39;100.00;99672.66;284666;34;1593;-76
2022/12/09 00:53:25;;;;;;;;;;;;;;;7.38;100.00;99679.63;2494352;27;19927;-76
2022/12/09 00:53:36;;;;;;;;;;;;;;;7.37;100.00;99672.69;353293;28;1201;-76
2022/12/09 00:53:46;;;;;;;;;;;;;;;7.37;100.00;99672.69;351984;28;831;-76
2022/12/09 00:53:56;;;;;;;;;;;;;;;7.36;100.00;99676.22;349172;28;1353;-76
2022/12/09 00:54:06;;;;;;;;;;;;;;;7.37;100.00;99677.91;347908;28;951;-76
2022/12/09 00:54:17;;;;;;;;;;;;;;;7.36;100.00;99673.63;348664;28;1270;-76
2022/12/09 00:54:27;;;;;;;;;;;;;;;7.37;100.00;99675.28;349288;28;887;-76
2022/12/09 00:54:37;;;;;;;;;;;;;;;7.37;100.00;99672.69;349274;28;879;-76
2022/12/09 00:54:47;;;;;;;;;;;;;;;7.38;100.00;99669.19;349116;28;800;-76
2022/12/09 00:54:58;;;;;;;;;;;;;;;7.37;100.00;99675.28;349173;28;1204;-76
2022/12/09 00:55:08;;;;;;;;;;;;;;;7.38;100.00;99670.94;349158;28;1292;-76
2022/12/09 00:55:18;;;;;;;;;;;;;;;7.38;100.00;99674.41;350539;28;1216;-76
2022/12/09 00:55:29;;;;;;;;;;;;;;;7.38;100.00;99666.59;349208;28;1302;-76
2022/12/09 00:55:39;;;;;;;;;;;;;;;7.38;100.00;99674.41;350507;28;938;-77
2022/12/09 00:55:49;;;;;;;;;;;;;;;7.39;100.00;99667.44;349054;28;1130;-77
2022/12/09 00:55:59;;;;;;;;;;;;;;;7.39;100.00;99670.06;346428;28;809;-77
2022/12/09 00:56:09;;;;;;;;;;;;;;;7.39;100.00;99670.91;347820;28;1234;-77
2022/12/09 00:56:22;;;;;;;;;;;;;;;7.39;100.00;99672.66;348872;28;3909;-77
2022/12/09 00:56:33;;;;;;;;;;;;;;;7.37;100.00;99664.88;348226;28;3556;-76
2022/12/09 00:56:43;;;;;;;;;;;;;;;7.38;100.00;99664.00;350434;28;2011;-76
2022/12/09 00:56:55;;;;;;;;;;;;;;;7.37;100.00;99672.69;349383;28;1930;-77
2022/12/09 00:57:06;;;;;;;;;;;;;;;7.37;100.00;99656.22;348199;28;3589;-77
2022/12/09 00:57:16;;;;;;;;;;;;;;;7.36;100.00;99667.56;349192;28;1201;-77
2022/12/09 00:57:26;;;;;;;;;;;;;;;7.36;100.00;99659.75;350542;28;1530;-77
2022/12/09 00:57:36;;;;;;;;;;;;;;;7.35;100.00;99658.91;350415;28;1336;-77
2022/12/09 00:57:47;;;;;;;;;;;;;;;7.35;100.00;99658.91;347730;28;1235;-77
2022/12/09 00:57:57;;;;;;;;;;;;;;;7.36;100.00;99662.34;349289;28;1199;-77
2022/12/09 00:58:07;;;;;;;;;;;;;;;7.36;100.00;99660.59;348466;28;1192;-77
2022/12/09 00:58:17;;;;;;;;;;;;;;;7.36;100.00;99655.41;349041;28;1298;-77
2022/12/09 00:58:27;;;;;;;;;;;;;;;7.35;100.00;99658.91;346372;28;1337;-77
2022/12/09 00:58:38;;;;;;;;;;;;;;;7.37;100.00;99659.69;346542;28;820;-77
2022/12/09 00:58:48;;;;;;;;;;;;;;;7.38;100.00;99673.56;346509;28;1280;-77
2022/12/09 00:58:58;;;;;;;;;;;;;;;7.36;100.00;99665.81;345148;28;1267;-77
2022/12/09 00:59:08;;;;;;;;;;;;;;;7.36;100.00;99665.81;344703;28;1122;-77
2022/12/09 00:59:19;;;;;;;;;;;;;;;7.37;100.00;99658.81;346861;28;1216;-77
2022/12/09 00:59:29;;;;;;;;;;;;;;;7.36;100.00;99668.41;346503;28;1326;-77
2022/12/09 00:59:39;;;;;;;;;;;;;;;7.37;100.00;99661.44;345072;28;1202;-77
2022/12/09 00:59:49;;;;;;;;;;;;;;;7.36;100.00;99663.22;345353;28;1254;-77
2022/12/09 00:59:59;;;;;;;;;;;;;;;7.37;100.00;99658.81;346281;28;1230;-77
2022/12/09 01:00:10;;;;;;;;;;;;;;;7.38;100.00;99660.53;343716;28;1330;-77
2022/12/09 01:00:20;;;;;;;;;;;;;;;7.37;100.00;99657.06;343032;28;1323;-77
2022/12/09 01:00:30;;;;;;;;;;;;;;;7.36;100.00;99662.34;342447;28;1232;-77
2022/12/09 01:00:41;;;;;;;;;;;;;;;7.34;100.00;99658.03;343830;28;856;-77
2022/12/09 01:00:52;;;;;;;;;;;;;;;7.34;100.00;99663.25;344192;28;1216;-76
2022/12/09 01:01:02;;;;;;;;;;;;;;;7.36;100.00;99667.56;343383;28;1549;-76
2022/12/09 01:01:13;;;;;;;;;;;;;;;7.35;100.00;99666.72;342310;28;1415;-76
2022/12/09 01:01:23;;;;;;;;;;;;;;;7.34;100.00;99659.78;344389;28;1345;-76
2022/12/09 01:01:33;;;;;;;;;;;;;;;7.37;100.00;99656.22;347873;28;1440;-76
2022/12/09 01:01:44;;;;;;;;;;;;;;;7.35;100.00;99661.50;353383;28;1355;-76
2022/12/09 01:01:54;;;;;;;;;;;;;;;7.36;100.00;99659.75;349037;28;1268;-76
2022/12/09 01:02:04;;;;;;;;;;;;;;;7.36;100.00;99654.53;346045;28;4341;-76
2022/12/09 01:02:14;;;;;;;;;;;;;;;7.36;100.00;99659.75;347282;28;3510;-76
2022/12/09 01:02:25;;;;;;;;;;;;;;;7.35;100.00;99653.69;345121;28;1351;-76
2022/12/09 01:02:35;;;;;;;;;;;;;;;7.35;100.00;99653.69;348141;28;1663;-76
2022/12/09 01:02:46;;;;;;;;;;;;;;;7.36;100.00;99658.00;346578;28;3465;-76